sensor_id;sensor_type;location;lat;lon;timestamp;pressure;altitude;pressure_sealevel;temperature;humidity
54870;BME280;40756;-37.950;145.008;2022-12-29T00:01:18;101653.06;;;18.47;35.58
54870;BME280;40756;-37.950;145.008;2022-12-29T00:03:48;101649.78;;;18.69;35.68
54870;BME280;40756;-37.950;145.008;2022-12-29T00:06:17;101646.87;;;18.60;35.71
54870;BME280;40756;-37.950;145.008;2022-12-29T00:08:47;101649.43;;;18.67;35.49
54870;BME280;40756;-37.950;145.008;2022-12-29T00:11:18;101647.47;;;19.36;35.28
54870;BME280;40756;-37.950;145.008;2022-12-29T00:13:48;101639.57;;;19.84;35.47
54870;BME280;40756;-37.950;145.008;2022-12-29T00:16:18;101640.99;;;19.47;34.72
54870;BME280;40756;-37.950;145.008;2022-12-29T00:18:48;101632.40;;;18.96;35.11
54870;BME280;40756;-37.950;145.008;2022-12-29T00:21:20;101634.25;;;18.77;35.08
54870;BME280;40756;-37.950;145.008;2022-12-29T00:23:49;101629.18;;;18.84;35.36
54870;BME280;40756;-37.950;145.008;2022-12-29T00:26:19;101629.88;;;18.71;36.26
54870;BME280;40756;-37.950;145.008;2022-12-29T00:28:50;101632.19;;;19.16;34.66
54870;BME280;40756;-37.950;145.008;2022-12-29T00:31:19;101624.78;;;18.59;34.71
54870;BME280;40756;-37.950;145.008;2022-12-29T00:33:49;101628.63;;;18.90;33.94
54870;BME280;40756;-37.950;145.008;2022-12-29T00:36:21;101632.52;;;19.09;33.94
54870;BME280;40756;-37.950;145.008;2022-12-29T00:38:55;101620.73;;;19.85;34.16
54870;BME280;40756;-37.950;145.008;2022-12-29T00:41:27;101629.19;;;19.19;34.48
54870;BME280;40756;-37.950;145.008;2022-12-29T00:43:56;101626.07;;;19.29;34.61
54870;BME280;40756;-37.950;145.008;2022-12-29T00:46:26;101623.95;;;19.27;34.26
54870;BME280;40756;-37.950;145.008;2022-12-29T00:48:55;101615.52;;;20.24;34.65
54870;BME280;40756;-37.950;145.008;2022-12-29T00:51:25;101617.82;;;19.36;33.68
54870;BME280;40756;-37.950;145.008;2022-12-29T00:53:54;101617.21;;;19.79;33.80
54870;BME280;40756;-37.950;145.008;2022-12-29T00:56:24;101605.63;;;20.91;32.08
54870;BME280;40756;-37.950;145.008;2022-12-29T00:58:53;101605.59;;;20.57;31.08
54870;BME280;40756;-37.950;145.008;2022-12-29T01:01:23;101610.80;;;19.81;32.19
54870;BME280;40756;-37.950;145.008;2022-12-29T01:03:53;101607.04;;;20.20;31.04
54870;BME280;40756;-37.950;145.008;2022-12-29T01:06:23;101609.28;;;19.93;31.39
54870;BME280;40756;-37.950;145.008;2022-12-29T01:08:53;101611.23;;;19.90;32.21
54870;BME280;40756;-37.950;145.008;2022-12-29T01:11:23;101607.79;;;19.15;32.21
54870;BME280;40756;-37.950;145.008;2022-12-29T01:13:53;101608.58;;;18.82;31.93
54870;BME280;40756;-37.950;145.008;2022-12-29T01:16:23;101600.62;;;20.42;31.08
54870;BME280;40756;-37.950;145.008;2022-12-29T01:18:52;101599.54;;;19.52;32.26
54870;BME280;40756;-37.950;145.008;2022-12-29T01:21:22;101600.58;;;20.40;32.93
54870;BME280;40756;-37.950;145.008;2022-12-29T01:23:53;101600.42;;;19.93;33.54
54870;BME280;40756;-37.950;145.008;2022-12-29T01:26:23;101608.81;;;20.06;34.22
54870;BME280;40756;-37.950;145.008;2022-12-29T01:28:52;101606.28;;;19.22;34.44
54870;BME280;40756;-37.950;145.008;2022-12-29T01:31:22;101608.20;;;19.65;33.88
54870;BME280;40756;-37.950;145.008;2022-12-29T01:33:53;101600.68;;;20.42;33.55
54870;BME280;40756;-37.950;145.008;2022-12-29T01:36:23;101602.62;;;20.02;33.70
54870;BME280;40756;-37.950;145.008;2022-12-29T01:38:54;101606.85;;;19.70;33.91
54870;BME280;40756;-37.950;145.008;2022-12-29T01:41:23;101608.48;;;19.70;33.82
54870;BME280;40756;-37.950;145.008;2022-12-29T01:43:54;101602.52;;;20.13;33.90
54870;BME280;40756;-37.950;145.008;2022-12-29T01:46:27;101593.65;;;20.65;33.59
54870;BME280;40756;-37.950;145.008;2022-12-29T01:49:08;101605.82;;;19.82;33.64
54870;BME280;40756;-37.950;145.008;2022-12-29T01:51:42;101601.94;;;20.08;33.89
54870;BME280;40756;-37.950;145.008;2022-12-29T01:54:16;101592.26;;;19.83;34.51
54870;BME280;40756;-37.950;145.008;2022-12-29T01:56:49;101586.80;;;20.11;34.31
54870;BME280;40756;-37.950;145.008;2022-12-29T01:59:22;101596.03;;;19.55;34.03
54870;BME280;40756;-37.950;145.008;2022-12-29T02:01:53;101591.83;;;19.07;35.08
54870;BME280;40756;-37.950;145.008;2022-12-29T02:04:25;101594.18;;;19.90;34.68
54870;BME280;40756;-37.950;145.008;2022-12-29T02:06:59;101592.38;;;20.44;34.46
54870;BME280;40756;-37.950;145.008;2022-12-29T02:09:30;101584.20;;;20.54;33.20
54870;BME280;40756;-37.950;145.008;2022-12-29T02:12:00;101581.19;;;20.70;33.57
54870;BME280;40756;-37.950;145.008;2022-12-29T02:14:31;101585.30;;;20.32;33.24
54870;BME280;40756;-37.950;145.008;2022-12-29T02:17:08;101582.58;;;20.33;33.16
54870;BME280;40756;-37.950;145.008;2022-12-29T02:19:58;101572.26;;;20.91;33.15
54870;BME280;40756;-37.950;145.008;2022-12-29T02:22:38;101575.86;;;20.16;33.22
54870;BME280;40756;-37.950;145.008;2022-12-29T02:25:45;101575.44;;;20.59;32.61
54870;BME280;40756;-37.950;145.008;2022-12-29T02:29:07;101577.78;;;20.64;32.58
54870;BME280;40756;-37.950;145.008;2022-12-29T02:31:44;101564.47;;;21.61;31.78
54870;BME280;40756;-37.950;145.008;2022-12-29T02:34:23;101569.61;;;21.02;31.76
54870;BME280;40756;-37.950;145.008;2022-12-29T02:37:02;101562.67;;;21.30;32.11
54870;BME280;40756;-37.950;145.008;2022-12-29T02:39:40;101558.64;;;21.54;31.59
54870;BME280;40756;-37.950;145.008;2022-12-29T02:42:17;101556.72;;;21.53;32.84
54870;BME280;40756;-37.950;145.008;2022-12-29T02:44:56;101555.28;;;21.14;32.13
54870;BME280;40756;-37.950;145.008;2022-12-29T02:47:36;101551.97;;;21.14;32.32
54870;BME280;40756;-37.950;145.008;2022-12-29T02:50:14;101550.70;;;20.89;32.22
54870;BME280;40756;-37.950;145.008;2022-12-29T02:52:49;101557.92;;;19.94;32.38
54870;BME280;40756;-37.950;145.008;2022-12-29T02:55:20;101555.53;;;20.16;32.72
54870;BME280;40756;-37.950;145.008;2022-12-29T02:58:02;101551.74;;;20.96;33.34
54870;BME280;40756;-37.950;145.008;2022-12-29T03:00:41;101551.70;;;20.19;33.75
54870;BME280;40756;-37.950;145.008;2022-12-29T03:03:23;101552.58;;;20.53;33.38
54870;BME280;40756;-37.950;145.008;2022-12-29T03:06:09;101551.96;;;20.07;33.95
54870;BME280;40756;-37.950;145.008;2022-12-29T03:08:49;101547.98;;;20.27;34.18
54870;BME280;40756;-37.950;145.008;2022-12-29T03:11:28;101541.47;;;20.47;33.59
54870;BME280;40756;-37.950;145.008;2022-12-29T03:14:05;101540.67;;;20.84;33.78
54870;BME280;40756;-37.950;145.008;2022-12-29T03:16:44;101543.50;;;20.59;33.63
54870;BME280;40756;-37.950;145.008;2022-12-29T03:19:18;101539.77;;;20.18;34.04
54870;BME280;40756;-37.950;145.008;2022-12-29T03:21:51;101543.16;;;20.04;33.61
54870;BME280;40756;-37.950;145.008;2022-12-29T03:24:26;101538.19;;;20.35;33.31
54870;BME280;40756;-37.950;145.008;2022-12-29T03:26:58;101529.33;;;20.06;34.31
54870;BME280;40756;-37.950;145.008;2022-12-29T03:29:32;101533.25;;;20.47;34.79
54870;BME280;40756;-37.950;145.008;2022-12-29T03:32:03;101537.29;;;20.30;34.77
54870;BME280;40756;-37.950;145.008;2022-12-29T03:34:36;101530.69;;;20.25;34.50
54870;BME280;40756;-37.950;145.008;2022-12-29T03:37:11;101528.45;;;20.74;33.73
54870;BME280;40756;-37.950;145.008;2022-12-29T03:39:44;101523.41;;;20.59;33.82
54870;BME280;40756;-37.950;145.008;2022-12-29T03:42:16;101521.45;;;20.57;33.65
54870;BME280;40756;-37.950;145.008;2022-12-29T03:44:47;101516.95;;;20.44;33.97
54870;BME280;40756;-37.950;145.008;2022-12-29T03:47:17;101525.06;;;20.71;34.39
54870;BME280;40756;-37.950;145.008;2022-12-29T03:49:47;101524.81;;;20.69;33.92
54870;BME280;40756;-37.950;145.008;2022-12-29T03:52:16;101521.37;;;20.26;33.71
54870;BME280;40756;-37.950;145.008;2022-12-29T03:54:47;101521.21;;;19.74;34.60
54870;BME280;40756;-37.950;145.008;2022-12-29T03:57:16;101519.27;;;19.75;35.07
54870;BME280;40756;-37.950;145.008;2022-12-29T03:59:45;101521.38;;;19.39;35.31
54870;BME280;40756;-37.950;145.008;2022-12-29T04:02:15;101517.36;;;20.05;35.57
54870;BME280;40756;-37.950;145.008;2022-12-29T04:04:45;101521.57;;;19.68;35.06
54870;BME280;40756;-37.950;145.008;2022-12-29T04:07:14;101512.36;;;19.42;35.36
54870;BME280;40756;-37.950;145.008;2022-12-29T04:09:43;101519.49;;;20.29;35.40
54870;BME280;40756;-37.950;145.008;2022-12-29T04:12:13;101513.87;;;20.67;34.65
54870;BME280;40756;-37.950;145.008;2022-12-29T04:14:42;101515.31;;;20.15;34.58
54870;BME280;40756;-37.950;145.008;2022-12-29T04:17:12;101506.82;;;20.12;35.08
54870;BME280;40756;-37.950;145.008;2022-12-29T04:19:41;101510.22;;;19.79;35.04
54870;BME280;40756;-37.950;145.008;2022-12-29T04:22:11;101512.23;;;19.94;34.89
54870;BME280;40756;-37.950;145.008;2022-12-29T04:24:40;101511.33;;;19.92;35.66
54870;BME280;40756;-37.950;145.008;2022-12-29T04:27:11;101509.69;;;20.64;35.31
54870;BME280;40756;-37.950;145.008;2022-12-29T04:29:40;101505.51;;;20.10;35.02
54870;BME280;40756;-37.950;145.008;2022-12-29T04:32:10;101501.84;;;20.85;34.80
54870;BME280;40756;-37.950;145.008;2022-12-29T04:34:41;101510.23;;;21.42;34.27
54870;BME280;40756;-37.950;145.008;2022-12-29T04:37:10;101503.45;;;19.66;34.17
54870;BME280;40756;-37.950;145.008;2022-12-29T04:39:40;101503.02;;;20.43;34.00
54870;BME280;40756;-37.950;145.008;2022-12-29T04:42:09;101498.09;;;21.16;34.39
54870;BME280;40756;-37.950;145.008;2022-12-29T04:44:39;101506.71;;;20.06;34.77
54870;BME280;40756;-37.950;145.008;2022-12-29T04:47:08;101504.62;;;20.07;34.59
54870;BME280;40756;-37.950;145.008;2022-12-29T04:49:38;101506.93;;;20.86;33.94
54870;BME280;40756;-37.950;145.008;2022-12-29T04:52:07;101505.24;;;20.74;33.89
54870;BME280;40756;-37.950;145.008;2022-12-29T04:54:36;101507.43;;;19.94;34.75
54870;BME280;40756;-37.950;145.008;2022-12-29T04:57:06;101495.92;;;20.28;34.93
54870;BME280;40756;-37.950;145.008;2022-12-29T04:59:35;101496.69;;;20.78;34.21
54870;BME280;40756;-37.950;145.008;2022-12-29T05:02:05;101497.10;;;19.78;34.56
54870;BME280;40756;-37.950;145.008;2022-12-29T05:04:34;101494.02;;;20.44;34.24
54870;BME280;40756;-37.950;145.008;2022-12-29T05:07:04;101500.82;;;20.41;34.20
54870;BME280;40756;-37.950;145.008;2022-12-29T05:09:33;101498.83;;;20.46;34.30
54870;BME280;40756;-37.950;145.008;2022-12-29T05:12:03;101486.96;;;20.06;33.92
54870;BME280;40756;-37.950;145.008;2022-12-29T05:14:33;101492.40;;;19.80;34.41
54870;BME280;40756;-37.950;145.008;2022-12-29T05:17:03;101490.32;;;20.45;34.05
54870;BME280;40756;-37.950;145.008;2022-12-29T05:19:33;101493.77;;;20.04;34.23
54870;BME280;40756;-37.950;145.008;2022-12-29T05:22:03;101489.72;;;20.08;34.10
54870;BME280;40756;-37.950;145.008;2022-12-29T05:24:32;101487.45;;;20.51;34.34
54870;BME280;40756;-37.950;145.008;2022-12-29T05:27:02;101486.57;;;20.70;34.35
54870;BME280;40756;-37.950;145.008;2022-12-29T05:29:31;101489.56;;;20.03;34.25
54870;BME280;40756;-37.950;145.008;2022-12-29T05:32:01;101486.08;;;20.27;34.58
54870;BME280;40756;-37.950;145.008;2022-12-29T05:34:30;101491.89;;;19.80;34.79
54870;BME280;40756;-37.950;145.008;2022-12-29T05:37:01;101488.09;;;19.52;34.94
54870;BME280;40756;-37.950;145.008;2022-12-29T05:39:30;101493.10;;;19.42;35.02
54870;BME280;40756;-37.950;145.008;2022-12-29T05:42:00;101488.51;;;19.45;35.43
54870;BME280;40756;-37.950;145.008;2022-12-29T05:44:29;101479.61;;;20.34;34.90
54870;BME280;40756;-37.950;145.008;2022-12-29T05:46:59;101475.12;;;20.36;34.84
54870;BME280;40756;-37.950;145.008;2022-12-29T05:49:28;101476.69;;;19.83;34.45
54870;BME280;40756;-37.950;145.008;2022-12-29T05:51:58;101473.22;;;20.27;34.73
54870;BME280;40756;-37.950;145.008;2022-12-29T05:54:27;101474.15;;;20.36;34.87
54870;BME280;40756;-37.950;145.008;2022-12-29T05:56:57;101471.94;;;19.58;35.41
54870;BME280;40756;-37.950;145.008;2022-12-29T05:59:26;101468.52;;;20.25;35.37
54870;BME280;40756;-37.950;145.008;2022-12-29T06:01:56;101465.23;;;20.23;35.09
54870;BME280;40756;-37.950;145.008;2022-12-29T06:04:25;101469.46;;;20.57;34.56
54870;BME280;40756;-37.950;145.008;2022-12-29T06:06:55;101471.53;;;19.59;35.23
54870;BME280;40756;-37.950;145.008;2022-12-29T06:09:24;101465.46;;;20.00;34.47
54870;BME280;40756;-37.950;145.008;2022-12-29T06:11:54;101471.95;;;19.78;35.03
54870;BME280;40756;-37.950;145.008;2022-12-29T06:14:23;101466.83;;;19.97;34.70
54870;BME280;40756;-37.950;145.008;2022-12-29T06:16:53;101468.28;;;20.17;34.50
54870;BME280;40756;-37.950;145.008;2022-12-29T06:19:22;101469.01;;;19.88;35.03
54870;BME280;40756;-37.950;145.008;2022-12-29T06:21:52;101467.62;;;19.92;35.19
54870;BME280;40756;-37.950;145.008;2022-12-29T06:24:22;101466.89;;;19.40;35.60
54870;BME280;40756;-37.950;145.008;2022-12-29T06:26:51;101470.15;;;19.77;35.75
54870;BME280;40756;-37.950;145.008;2022-12-29T06:29:21;101470.01;;;19.10;35.74
54870;BME280;40756;-37.950;145.008;2022-12-29T06:31:50;101462.63;;;19.46;35.55
54870;BME280;40756;-37.950;145.008;2022-12-29T06:34:19;101458.65;;;19.56;36.27
54870;BME280;40756;-37.950;145.008;2022-12-29T06:36:49;101455.04;;;20.11;35.82
54870;BME280;40756;-37.950;145.008;2022-12-29T06:39:19;101452.55;;;19.45;36.46
54870;BME280;40756;-37.950;145.008;2022-12-29T06:41:51;101461.04;;;18.95;37.02
54870;BME280;40756;-37.950;145.008;2022-12-29T06:44:21;101453.65;;;19.75;36.08
54870;BME280;40756;-37.950;145.008;2022-12-29T06:46:51;101453.73;;;19.09;36.69
54870;BME280;40756;-37.950;145.008;2022-12-29T06:49:20;101453.15;;;19.64;36.62
54870;BME280;40756;-37.950;145.008;2022-12-29T06:51:50;101452.25;;;19.99;36.27
54870;BME280;40756;-37.950;145.008;2022-12-29T06:54:19;101445.52;;;20.06;36.38
54870;BME280;40756;-37.950;145.008;2022-12-29T06:56:49;101452.29;;;19.55;36.42
54870;BME280;40756;-37.950;145.008;2022-12-29T06:59:18;101447.67;;;19.91;36.03
54870;BME280;40756;-37.950;145.008;2022-12-29T07:01:48;101452.74;;;20.20;36.06
54870;BME280;40756;-37.950;145.008;2022-12-29T07:04:17;101444.83;;;20.20;35.69
54870;BME280;40756;-37.950;145.008;2022-12-29T07:06:47;101444.79;;;19.64;36.35
54870;BME280;40756;-37.950;145.008;2022-12-29T07:09:16;101452.29;;;19.28;36.64
54870;BME280;40756;-37.950;145.008;2022-12-29T07:11:45;101447.68;;;19.50;37.12
54870;BME280;40756;-37.950;145.008;2022-12-29T07:14:15;101443.19;;;18.67;38.26
54870;BME280;40756;-37.950;145.008;2022-12-29T07:16:44;101443.36;;;19.62;37.70
54870;BME280;40756;-37.950;145.008;2022-12-29T07:19:14;101439.49;;;19.30;37.78
54870;BME280;40756;-37.950;145.008;2022-12-29T07:21:43;101447.40;;;20.02;37.17
54870;BME280;40756;-37.950;145.008;2022-12-29T07:24:13;101451.70;;;19.81;37.12
54870;BME280;40756;-37.950;145.008;2022-12-29T07:26:43;101444.05;;;20.20;36.75
54870;BME280;40756;-37.950;145.008;2022-12-29T07:29:12;101444.08;;;19.42;37.34
54870;BME280;40756;-37.950;145.008;2022-12-29T07:31:42;101454.36;;;19.00;38.55
54870;BME280;40756;-37.950;145.008;2022-12-29T07:34:11;101447.61;;;19.53;38.24
54870;BME280;40756;-37.950;145.008;2022-12-29T07:36:41;101442.29;;;19.71;37.54
54870;BME280;40756;-37.950;145.008;2022-12-29T07:39:10;101441.28;;;19.79;37.35
54870;BME280;40756;-37.950;145.008;2022-12-29T07:41:41;101447.09;;;19.58;37.92
54870;BME280;40756;-37.950;145.008;2022-12-29T07:44:10;101447.49;;;19.35;37.90
54870;BME280;40756;-37.950;145.008;2022-12-29T07:46:40;101446.73;;;19.85;37.28
54870;BME280;40756;-37.950;145.008;2022-12-29T07:49:09;101448.19;;;19.69;37.99
54870;BME280;40756;-37.950;145.008;2022-12-29T07:51:39;101447.79;;;19.51;38.45
54870;BME280;40756;-37.950;145.008;2022-12-29T07:54:10;101441.82;;;19.15;38.64
54870;BME280;40756;-37.950;145.008;2022-12-29T07:56:39;101441.30;;;19.46;38.80
54870;BME280;40756;-37.950;145.008;2022-12-29T07:59:09;101440.46;;;19.62;38.80
54870;BME280;40756;-37.950;145.008;2022-12-29T08:01:39;101442.32;;;19.32;38.92
54870;BME280;40756;-37.950;145.008;2022-12-29T08:04:08;101440.21;;;19.68;39.01
54870;BME280;40756;-37.950;145.008;2022-12-29T08:06:38;101439.71;;;19.27;39.12
54870;BME280;40756;-37.950;145.008;2022-12-29T08:09:08;101438.48;;;18.96;39.68
54870;BME280;40756;-37.950;145.008;2022-12-29T08:11:38;101443.51;;;18.40;40.33
54870;BME280;40756;-37.950;145.008;2022-12-29T08:14:10;101441.74;;;18.32;41.15
54870;BME280;40756;-37.950;145.008;2022-12-29T08:16:39;101446.19;;;19.01;40.66
54870;BME280;40756;-37.950;145.008;2022-12-29T08:19:11;101445.08;;;18.61;40.87
54870;BME280;40756;-37.950;145.008;2022-12-29T08:21:41;101445.70;;;19.38;40.68
54870;BME280;40756;-37.950;145.008;2022-12-29T08:24:12;101448.20;;;18.63;41.63
54870;BME280;40756;-37.950;145.008;2022-12-29T08:26:42;101449.63;;;19.54;40.64
54870;BME280;40756;-37.950;145.008;2022-12-29T08:29:11;101448.98;;;18.59;41.95
54870;BME280;40756;-37.950;145.008;2022-12-29T08:31:41;101449.30;;;19.02;41.44
54870;BME280;40756;-37.950;145.008;2022-12-29T08:34:10;101446.99;;;18.33;42.06
54870;BME280;40756;-37.950;145.008;2022-12-29T08:36:40;101443.05;;;18.76;41.71
54870;BME280;40756;-37.950;145.008;2022-12-29T08:39:10;101445.75;;;18.89;40.98
54870;BME280;40756;-37.950;145.008;2022-12-29T08:41:40;101448.16;;;18.58;41.41
54870;BME280;40756;-37.950;145.008;2022-12-29T08:44:09;101443.07;;;18.61;41.58
54870;BME280;40756;-37.950;145.008;2022-12-29T08:46:39;101448.30;;;18.47;41.91
54870;BME280;40756;-37.950;145.008;2022-12-29T08:49:08;101455.35;;;18.58;42.26
54870;BME280;40756;-37.950;145.008;2022-12-29T08:51:38;101451.23;;;17.75;44.00
54870;BME280;40756;-37.950;145.008;2022-12-29T08:54:08;101444.51;;;18.52;42.93
54870;BME280;40756;-37.950;145.008;2022-12-29T08:56:37;101452.97;;;18.23;43.73
54870;BME280;40756;-37.950;145.008;2022-12-29T08:59:06;101449.33;;;18.07;44.02
54870;BME280;40756;-37.950;145.008;2022-12-29T09:01:36;101445.49;;;18.56;44.00
54870;BME280;40756;-37.950;145.008;2022-12-29T09:04:05;101448.07;;;19.03;43.43
54870;BME280;40756;-37.950;145.008;2022-12-29T09:06:35;101447.68;;;18.44;43.53
54870;BME280;40756;-37.950;145.008;2022-12-29T09:09:04;101449.79;;;18.43;44.18
54870;BME280;40756;-37.950;145.008;2022-12-29T09:11:34;101447.36;;;18.38;44.40
54870;BME280;40756;-37.950;145.008;2022-12-29T09:14:03;101442.26;;;18.90;44.11
54870;BME280;40756;-37.950;145.008;2022-12-29T09:16:34;101444.80;;;18.02;45.07
54870;BME280;40756;-37.950;145.008;2022-12-29T09:19:05;101439.17;;;18.63;44.85
54870;BME280;40756;-37.950;145.008;2022-12-29T09:21:36;101433.83;;;18.42;45.20
54870;BME280;40756;-37.950;145.008;2022-12-29T09:24:05;101431.04;;;17.75;46.96
54870;BME280;40756;-37.950;145.008;2022-12-29T09:26:35;101432.19;;;18.57;46.95
54870;BME280;40756;-37.950;145.008;2022-12-29T09:29:04;101426.52;;;18.61;46.97
54870;BME280;40756;-37.950;145.008;2022-12-29T09:31:33;101426.29;;;18.47;47.71
54870;BME280;40756;-37.950;145.008;2022-12-29T09:34:02;101426.01;;;18.67;47.96
54870;BME280;40756;-37.950;145.008;2022-12-29T09:36:32;101421.72;;;18.48;48.78
54870;BME280;40756;-37.950;145.008;2022-12-29T09:39:02;101415.86;;;18.99;48.10
54870;BME280;40756;-37.950;145.008;2022-12-29T09:41:36;101413.72;;;18.55;48.69
54870;BME280;40756;-37.950;145.008;2022-12-29T09:44:15;101407.42;;;19.16;47.63
54870;BME280;40756;-37.950;145.008;2022-12-29T09:46:49;101408.82;;;18.78;48.78
54870;BME280;40756;-37.950;145.008;2022-12-29T09:49:27;101403.92;;;19.07;48.48
54870;BME280;40756;-37.950;145.008;2022-12-29T09:52:03;101396.05;;;18.92;48.88
54870;BME280;40756;-37.950;145.008;2022-12-29T09:54:42;101397.42;;;19.13;48.29
54870;BME280;40756;-37.950;145.008;2022-12-29T09:57:21;101397.80;;;19.13;48.33
54870;BME280;40756;-37.950;145.008;2022-12-29T09:59:54;101394.60;;;19.29;47.84
54870;BME280;40756;-37.950;145.008;2022-12-29T10:02:36;101390.80;;;19.56;47.54
54870;BME280;40756;-37.950;145.008;2022-12-29T10:05:18;101397.89;;;19.12;47.47
54870;BME280;40756;-37.950;145.008;2022-12-29T10:07:55;101391.85;;;19.52;46.37
54870;BME280;40756;-37.950;145.008;2022-12-29T10:10:37;101391.52;;;19.14;46.67
54870;BME280;40756;-37.950;145.008;2022-12-29T10:13:19;101392.12;;;19.40;45.87
54870;BME280;40756;-37.950;145.008;2022-12-29T10:15:58;101391.03;;;19.38;45.54
54870;BME280;40756;-37.950;145.008;2022-12-29T10:18:46;101389.85;;;19.31;45.30
54870;BME280;40756;-37.950;145.008;2022-12-29T10:21:30;101391.02;;;19.49;44.83
54870;BME280;40756;-37.950;145.008;2022-12-29T10:24:06;101390.67;;;19.64;44.58
54870;BME280;40756;-37.950;145.008;2022-12-29T10:26:40;101391.95;;;19.49;44.64
54870;BME280;40756;-37.950;145.008;2022-12-29T10:29:16;101393.85;;;19.46;44.40
54870;BME280;40756;-37.950;145.008;2022-12-29T10:31:50;101395.64;;;19.63;44.63
54870;BME280;40756;-37.950;145.008;2022-12-29T10:34:28;101398.08;;;19.28;44.90
54870;BME280;40756;-37.950;145.008;2022-12-29T10:37:05;101402.06;;;19.16;46.08
54870;BME280;40756;-37.950;145.008;2022-12-29T10:39:43;101401.44;;;19.05;46.46
54870;BME280;40756;-37.950;145.008;2022-12-29T10:42:18;101402.36;;;19.15;46.29
54870;BME280;40756;-37.950;145.008;2022-12-29T10:44:51;101404.97;;;19.10;46.59
54870;BME280;40756;-37.950;145.008;2022-12-29T10:47:24;101403.67;;;19.14;46.73
54870;BME280;40756;-37.950;145.008;2022-12-29T10:49:56;101406.37;;;19.18;46.75
54870;BME280;40756;-37.950;145.008;2022-12-29T10:52:27;101411.75;;;19.28;46.65
54870;BME280;40756;-37.950;145.008;2022-12-29T10:55:00;101410.28;;;19.44;46.52
54870;BME280;40756;-37.950;145.008;2022-12-29T10:57:36;101410.82;;;19.39;46.72
54870;BME280;40756;-37.950;145.008;2022-12-29T11:00:14;101411.23;;;19.45;46.77
54870;BME280;40756;-37.950;145.008;2022-12-29T11:03:01;101408.92;;;19.44;46.94
54870;BME280;40756;-37.950;145.008;2022-12-29T11:05:36;101410.20;;;19.35;46.80
54870;BME280;40756;-37.950;145.008;2022-12-29T11:08:13;101411.62;;;19.38;47.58
54870;BME280;40756;-37.950;145.008;2022-12-29T11:10:45;101412.22;;;19.53;47.30
54870;BME280;40756;-37.950;145.008;2022-12-29T11:13:17;101413.07;;;19.20;48.08
54870;BME280;40756;-37.950;145.008;2022-12-29T11:15:48;101415.37;;;19.34;48.57
54870;BME280;40756;-37.950;145.008;2022-12-29T11:18:24;101415.70;;;19.19;48.48
54870;BME280;40756;-37.950;145.008;2022-12-29T11:20:56;101414.46;;;19.40;48.63
54870;BME280;40756;-37.950;145.008;2022-12-29T11:23:31;101411.05;;;19.43;48.67
54870;BME280;40756;-37.950;145.008;2022-12-29T11:26:14;101407.19;;;19.12;49.34
54870;BME280;40756;-37.950;145.008;2022-12-29T11:28:47;101406.80;;;19.17;49.26
54870;BME280;40756;-37.950;145.008;2022-12-29T11:31:20;101404.24;;;19.29;49.07
54870;BME280;40756;-37.950;145.008;2022-12-29T11:33:51;101400.58;;;19.13;49.35
54870;BME280;40756;-37.950;145.008;2022-12-29T11:36:23;101399.60;;;18.70;49.81
54870;BME280;40756;-37.950;145.008;2022-12-29T11:38:54;101398.46;;;19.02;49.68
54870;BME280;40756;-37.950;145.008;2022-12-29T11:41:26;101394.25;;;19.09;49.60
54870;BME280;40756;-37.950;145.008;2022-12-29T11:43:58;101389.81;;;18.97;49.83
54870;BME280;40756;-37.950;145.008;2022-12-29T11:46:33;101389.33;;;18.94;49.93
54870;BME280;40756;-37.950;145.008;2022-12-29T11:49:04;101388.85;;;18.87;50.12
54870;BME280;40756;-37.950;145.008;2022-12-29T11:51:41;101390.24;;;18.51;50.38
54870;BME280;40756;-37.950;145.008;2022-12-29T11:54:17;101383.57;;;18.80;50.25
54870;BME280;40756;-37.950;145.008;2022-12-29T11:56:49;101386.33;;;18.43;51.14
54870;BME280;40756;-37.950;145.008;2022-12-29T11:59:52;101386.46;;;18.66;50.70
54870;BME280;40756;-37.950;145.008;2022-12-29T12:02:53;101373.89;;;19.34;50.49
54870;BME280;40756;-37.950;145.008;2022-12-29T12:05:31;101378.28;;;18.96;50.40
54870;BME280;40756;-37.950;145.008;2022-12-29T12:08:09;101373.30;;;19.12;49.93
54870;BME280;40756;-37.950;145.008;2022-12-29T12:10:46;101372.95;;;18.85;50.62
54870;BME280;40756;-37.950;145.008;2022-12-29T12:13:22;101372.14;;;18.85;50.74
54870;BME280;40756;-37.950;145.008;2022-12-29T12:16:02;101370.35;;;18.75;50.61
54870;BME280;40756;-37.950;145.008;2022-12-29T12:18:40;101371.41;;;18.74;50.86
54870;BME280;40756;-37.950;145.008;2022-12-29T12:21:18;101365.54;;;18.80;50.85
54870;BME280;40756;-37.950;145.008;2022-12-29T12:24:21;101369.23;;;18.46;51.40
54870;BME280;40756;-37.950;145.008;2022-12-29T12:27:00;101366.53;;;18.35;51.79
54870;BME280;40756;-37.950;145.008;2022-12-29T12:29:36;101366.70;;;18.28;51.55
54870;BME280;40756;-37.950;145.008;2022-12-29T12:32:14;101362.64;;;18.57;50.94
54870;BME280;40756;-37.950;145.008;2022-12-29T12:34:46;101362.03;;;18.60;50.74
54870;BME280;40756;-37.950;145.008;2022-12-29T12:37:44;101362.93;;;18.05;51.09
54870;BME280;40756;-37.950;145.008;2022-12-29T12:40:35;101357.18;;;18.50;50.10
54870;BME280;40756;-37.950;145.008;2022-12-29T12:43:27;101356.60;;;18.34;49.89
54870;BME280;40756;-37.950;145.008;2022-12-29T12:46:11;101359.94;;;18.61;49.28
54870;BME280;40756;-37.950;145.008;2022-12-29T12:48:56;101359.55;;;18.28;49.14